createdAt,value
2018-05-17T00:06:11.050Z,9.80
2018-05-17T00:16:12.361Z,9.80
2018-05-17T00:26:13.715Z,9.70
2018-05-17T00:36:15.057Z,9.50
2018-05-17T00:46:16.409Z,9.40
2018-05-17T00:56:18.182Z,9.20
2018-05-17T01:06:19.522Z,9.20
2018-05-17T01:16:20.864Z,9.20
2018-05-17T01:26:22.226Z,9.10
2018-05-17T01:36:29.217Z,9.00
2018-05-17T01:46:30.534Z,9.00
2018-05-17T01:56:31.854Z,8.90
2018-05-17T02:06:33.935Z,9.00
2018-05-17T02:16:35.277Z,9.00
2018-05-17T02:26:37.399Z,8.90
2018-05-17T02:36:38.748Z,8.90
2018-05-17T02:46:40.145Z,8.70
2018-05-17T02:56:41.497Z,8.60
2018-05-17T03:06:42.860Z,8.60
2018-05-17T03:16:44.205Z,8.50
2018-05-17T03:26:45.553Z,8.30
2018-05-17T03:36:46.954Z,8.60
2018-05-17T03:46:49.067Z,9.00
2018-05-17T03:56:50.384Z,8.90
2018-05-17T04:06:51.737Z,9.10
2018-05-17T04:16:53.086Z,9.10
2018-05-17T04:26:54.455Z,9.00
2018-05-17T04:36:55.808Z,8.90
2018-05-17T04:46:57.144Z,8.90
2018-05-17T04:56:58.506Z,9.10
2018-05-17T05:06:59.863Z,9.50
2018-05-17T05:17:01.183Z,10.50
2018-05-17T05:27:02.498Z,10.60
2018-05-17T05:37:03.806Z,10.70
2018-05-17T05:47:05.128Z,12.40
2018-05-17T05:57:06.447Z,12.90
2018-05-17T06:07:08.566Z,12.60
2018-05-17T06:17:09.955Z,12.50
2018-05-17T06:27:11.393Z,13.10
2018-05-17T06:37:12.795Z,13.60
2018-05-17T06:47:14.143Z,14.70
2018-05-17T06:57:16.328Z,15.80
2018-05-17T07:07:17.699Z,15.80
2018-05-17T07:17:19.058Z,16.30
2018-05-17T07:27:21.192Z,17.90
2018-05-17T07:37:22.519Z,17.90
2018-05-17T07:47:23.872Z,21.20
2018-05-17T07:57:26.000Z,32.20
2018-05-17T08:07:27.350Z,32.00
2018-05-17T08:17:29.513Z,31.60
2018-05-17T08:27:30.878Z,31.60
2018-05-17T08:37:32.233Z,34.80
2018-05-17T08:47:33.595Z,33.30
2018-05-17T08:57:34.961Z,31.30
2018-05-17T09:07:36.326Z,24.00
2018-05-17T09:17:37.669Z,22.70
2018-05-17T09:27:39.803Z,23.30
2018-05-17T09:37:41.128Z,23.30
2018-05-17T09:47:42.539Z,20.80
2018-05-17T09:57:43.894Z,19.80
2018-05-17T10:07:45.254Z,23.20
2018-05-17T10:17:46.645Z,25.20
2018-05-17T10:27:48.006Z,25.10
2018-05-17T10:37:49.361Z,24.50
2018-05-17T10:47:51.506Z,24.40
2018-05-17T10:57:52.862Z,24.30
2018-05-17T11:07:54.242Z,24.80
2018-05-17T11:17:55.617Z,23.60
2018-05-17T11:27:56.965Z,23.40
2018-05-17T11:37:58.288Z,23.10
2018-05-17T11:47:59.607Z,22.80
2018-05-17T11:58:00.967Z,22.70
2018-05-17T12:08:03.086Z,22.00
2018-05-17T12:18:04.433Z,22.00
2018-05-17T12:28:05.836Z,22.20
2018-05-17T12:38:07.195Z,22.10
2018-05-17T12:48:08.549Z,21.90
2018-05-17T12:58:09.913Z,22.00
2018-05-17T13:08:11.843Z,21.80
2018-05-17T13:18:13.998Z,21.70
2018-05-17T13:28:16.126Z,22.00
2018-05-17T13:38:18.256Z,22.50
2018-05-17T13:48:24.515Z,22.50
2018-05-17T13:58:27.553Z,22.50
2018-05-17T14:18:45.833Z,21.20
2018-05-17T14:28:47.173Z,20.80
2018-05-17T14:38:48.648Z,20.90
2018-05-17T15:09:05.105Z,22.00
2018-05-17T15:19:06.457Z,21.70
2018-05-17T15:29:07.812Z,21.10
2018-05-17T15:39:09.158Z,21.00
2018-05-17T15:49:10.527Z,21.50
2018-05-17T15:59:11.867Z,21.20
2018-05-17T16:09:13.475Z,20.80
2018-05-17T16:19:16.917Z,20.40
2018-05-17T16:29:18.291Z,19.90
2018-05-17T16:39:19.613Z,19.50
2018-05-17T16:49:20.946Z,19.20
2018-05-17T16:59:22.337Z,18.90
2018-05-17T17:09:23.713Z,18.60
2018-05-17T17:19:25.071Z,18.50
2018-05-17T17:29:26.442Z,18.20
2018-05-17T17:39:28.615Z,17.80
2018-05-17T17:49:30.005Z,17.80
2018-05-17T17:59:31.371Z,17.70
2018-05-17T18:09:32.729Z,17.40
2018-05-17T18:19:34.090Z,17.10
2018-05-17T18:29:35.465Z,16.90
2018-05-17T18:39:36.829Z,16.70
2018-05-17T18:49:39.099Z,16.30
2018-05-17T18:59:40.487Z,16.30
2018-05-17T19:09:41.843Z,16.20
2018-05-17T19:19:43.232Z,16.00
2018-05-17T19:29:44.583Z,15.80
2018-05-17T19:39:45.933Z,15.60
2018-05-17T19:59:53.669Z,15.40
2018-05-17T20:09:55.016Z,15.20
2018-05-17T20:19:56.420Z,15.10
2018-05-17T20:29:57.759Z,14.90
2018-05-17T20:39:59.841Z,14.70
2018-05-17T20:50:02.030Z,14.70
2018-05-17T21:00:03.401Z,14.60
2018-05-17T21:10:04.758Z,14.40
2018-05-17T21:20:06.107Z,14.20
2018-05-17T21:30:07.473Z,14.00
2018-05-17T21:40:09.600Z,13.90
2018-05-17T21:50:10.945Z,13.80
2018-05-17T22:00:12.295Z,13.60
2018-05-17T22:10:14.421Z,13.20
2018-05-17T22:20:15.780Z,13.20
2018-05-17T22:30:17.137Z,13.30
2018-05-17T22:40:18.485Z,13.30
2018-05-17T22:50:19.864Z,13.30
2018-05-17T23:00:21.217Z,13.40
2018-05-17T23:10:22.628Z,13.50
2018-05-17T23:20:24.020Z,13.50
2018-05-17T23:30:25.407Z,13.40
2018-05-17T23:40:26.769Z,13.20
2018-05-17T23:50:28.900Z,12.70
